KPVE

Beech River Regional Airport

Lexington-Parsons, Tennessee, USA
METAR KPVE 260355Z AUTO 19006KT 10SM FEW027 SCT042 BKN055 21/20 A2991 RMK A01
Observed Flight Rules
May-26 @ 03:55 UTC (26 minutes ago) Visual Flight Rules
Wind Visibility Clouds
190° at 6 knots 10 miles
  • Few at 2,700' AGL
  • Scattered at 4,200' AGL
  • Broken at 5,500' AGL
Temperatures Readings
Current 21°C / 70°F
Dewpoint 20°C / 68°F
Humidity 94%
Altimeter 29.91" Hg
Pressure 1013 hPa
Elevation 149
METAR KPVE 260355Z AUTO 19006KT 10SM FEW027 SCT042 BKN055 21/20 A2991 RMK A01
Observed Flight Rules
May-26 @ 03:55 UTC
(26 minutes ago)
VFR
Wind Visibility
190° at 6 knots 10 miles
Clouds
  • Few at 2,700' AGL
  • Scattered at 4,200' AGL
  • Broken at 5,500' AGL
Temperature Dewpoint
21°C / 70°F 20°C / 68°F
Humidity Altimeter Pressure
94% 29.91" Hg 1013 hPa